createdAt,value
2023-03-19T00:00:46.678Z,68.88
2023-03-19T00:03:13.758Z,69.22
2023-03-19T00:05:41.749Z,69.68
2023-03-19T00:08:08.853Z,69.63
2023-03-19T00:10:39.742Z,68.78
2023-03-19T00:13:07.070Z,69.14
2023-03-19T00:15:34.522Z,67.16
2023-03-19T00:18:02.109Z,67.16
2023-03-19T00:20:29.144Z,68.01
2023-03-19T00:22:56.544Z,67.08
2023-03-19T00:25:24.132Z,68.52
2023-03-19T00:27:52.783Z,68.78
2023-03-19T00:30:20.171Z,68.70
2023-03-19T00:32:48.190Z,68.49
2023-03-19T00:35:15.936Z,68.60
2023-03-19T00:37:43.086Z,68.62
2023-03-19T00:40:11.661Z,69.37
2023-03-19T00:42:38.719Z,69.39
2023-03-19T00:45:06.958Z,67.71
2023-03-19T00:47:34.238Z,68.20
2023-03-19T00:50:01.989Z,69.19
2023-03-19T00:52:29.087Z,68.80
2023-03-19T00:54:56.175Z,68.98
2023-03-19T00:57:23.569Z,68.47
2023-03-19T00:59:50.933Z,69.63
2023-03-19T01:02:18.066Z,68.53
2023-03-19T01:04:47.459Z,69.70
2023-03-19T01:07:14.706Z,70.57
2023-03-19T01:09:41.991Z,69.29
2023-03-19T01:12:09.458Z,67.96
2023-03-19T01:14:36.501Z,69.02
2023-03-19T01:17:03.567Z,68.32
2023-03-19T01:19:30.900Z,67.32
2023-03-19T01:21:58.029Z,64.97
2023-03-19T01:24:25.387Z,66.60
2023-03-19T01:26:52.414Z,68.79
2023-03-19T01:29:19.496Z,67.26
2023-03-19T01:31:46.597Z,68.09
2023-03-19T01:34:13.735Z,70.94
2023-03-19T01:36:41.080Z,70.56
2023-03-19T01:39:08.202Z,72.65
2023-03-19T01:41:35.336Z,72.34
2023-03-19T01:44:02.356Z,72.13
2023-03-19T01:46:34.766Z,70.52
2023-03-19T01:49:07.625Z,71.51
2023-03-19T01:51:41.464Z,70.90
2023-03-19T01:54:14.612Z,72.58
2023-03-19T01:56:44.984Z,72.11
2023-03-19T01:59:26.848Z,70.64
2023-03-19T02:02:09.394Z,70.11
2023-03-19T02:04:40.810Z,69.62
2023-03-19T02:07:09.573Z,71.82
2023-03-19T02:09:37.211Z,71.47
2023-03-19T02:12:05.465Z,72.54
2023-03-19T02:14:32.552Z,72.71
2023-03-19T02:16:59.884Z,69.85
2023-03-19T02:19:44.622Z,71.54
2023-03-19T02:22:13.779Z,73.25
2023-03-19T02:25:17.150Z,74.20
2023-03-19T02:27:44.531Z,74.70
2023-03-19T02:30:37.791Z,73.34
2023-03-19T02:33:05.276Z,72.99
2023-03-19T02:35:35.202Z,70.28
2023-03-19T02:38:05.164Z,71.62
2023-03-19T02:40:45.253Z,72.47
2023-03-19T02:43:12.386Z,72.12
2023-03-19T02:45:40.482Z,72.90
2023-03-19T02:48:07.540Z,72.60
2023-03-19T02:50:34.830Z,73.17
2023-03-19T02:53:02.074Z,72.40
2023-03-19T02:55:29.155Z,71.67
2023-03-19T02:57:56.323Z,70.55
2023-03-19T03:00:23.449Z,69.04
2023-03-19T03:02:50.778Z,68.38
2023-03-19T03:05:18.448Z,70.10
2023-03-19T03:07:45.522Z,70.91
2023-03-19T03:10:12.931Z,70.27
2023-03-19T03:12:40.085Z,72.37
2023-03-19T03:15:08.888Z,70.69
2023-03-19T03:17:40.794Z,71.81
2023-03-19T03:20:11.423Z,71.03
2023-03-19T03:22:39.913Z,70.84
2023-03-19T03:25:07.584Z,71.66
2023-03-19T03:27:34.823Z,71.73
2023-03-19T03:30:01.933Z,72.29
2023-03-19T03:32:29.050Z,71.61
2023-03-19T03:34:56.098Z,72.38
2023-03-19T03:37:23.160Z,72.33
2023-03-19T03:39:50.930Z,71.77
2023-03-19T03:42:18.480Z,69.96
2023-03-19T03:44:45.583Z,70.56
2023-03-19T03:47:13.530Z,69.53
2023-03-19T03:49:40.583Z,68.31
2023-03-19T03:52:09.005Z,68.20
2023-03-19T03:54:36.137Z,65.85
2023-03-19T03:57:03.793Z,64.25
2023-03-19T03:59:31.074Z,63.71
2023-03-19T04:01:58.328Z,63.54
2023-03-19T04:04:25.475Z,62.99
2023-03-19T04:06:52.568Z,63.08
2023-03-19T04:09:19.692Z,63.63
2023-03-19T04:11:47.130Z,62.57
2023-03-19T04:14:14.390Z,64.71
2023-03-19T04:16:42.073Z,66.23
2023-03-19T04:19:09.144Z,65.92
2023-03-19T04:21:36.208Z,62.69
2023-03-19T04:24:03.616Z,62.58
2023-03-19T04:26:30.907Z,63.25
2023-03-19T04:28:58.804Z,62.54
2023-03-19T04:31:25.932Z,62.13
2023-03-19T04:33:53.398Z,64.05
2023-03-19T04:36:20.959Z,63.09
2023-03-19T04:38:48.022Z,62.42
2023-03-19T04:41:16.246Z,62.87
2023-03-19T04:43:43.318Z,62.22
2023-03-19T04:46:10.477Z,62.83
2023-03-19T04:48:37.742Z,64.81
2023-03-19T04:51:08.445Z,62.68
2023-03-19T04:53:38.212Z,61.77
2023-03-19T04:56:07.052Z,64.02
2023-03-19T04:58:34.400Z,62.80
2023-03-19T05:01:01.582Z,64.01
2023-03-19T05:03:28.725Z,66.61
2023-03-19T05:05:55.899Z,66.45
2023-03-19T05:08:23.031Z,64.42
2023-03-19T05:10:50.138Z,64.32
2023-03-19T05:13:18.068Z,63.93
2023-03-19T05:15:47.419Z,62.15
2023-03-19T05:18:14.695Z,62.31
2023-03-19T05:20:42.600Z,61.37
2023-03-19T05:23:10.464Z,62.14
2023-03-19T05:25:37.610Z,61.87
2023-03-19T05:28:05.557Z,62.25
2023-03-19T05:30:33.235Z,61.92
2023-03-19T05:33:02.141Z,65.25
2023-03-19T05:35:30.631Z,64.72
2023-03-19T05:37:57.883Z,66.26
2023-03-19T05:40:26.474Z,68.23
2023-03-19T05:42:53.628Z,69.50
2023-03-19T05:45:21.414Z,72.16
2023-03-19T05:47:50.038Z,73.75
2023-03-19T05:50:19.356Z,71.12
2023-03-19T05:52:46.432Z,70.88
2023-03-19T05:55:13.731Z,74.66
2023-03-19T05:57:41.168Z,79.92
2023-03-19T06:00:11.129Z,81.18
2023-03-19T06:02:38.415Z,81.14
2023-03-19T06:05:07.124Z,81.42
2023-03-19T06:07:34.194Z,82.29
2023-03-19T06:10:01.403Z,83.05
2023-03-19T06:12:28.785Z,82.70
2023-03-19T06:14:56.635Z,81.49
2023-03-19T06:17:23.769Z,82.02
2023-03-19T06:19:50.835Z,82.03
2023-03-19T06:22:17.943Z,82.92
2023-03-19T06:24:44.988Z,82.03
2023-03-19T06:27:12.270Z,81.70
2023-03-19T06:29:39.360Z,83.12
2023-03-19T06:32:06.626Z,82.42
2023-03-19T06:34:33.735Z,83.65
2023-03-19T06:37:01.118Z,82.09
2023-03-19T06:39:28.214Z,82.15
2023-03-19T06:41:55.781Z,81.06
2023-03-19T06:44:22.910Z,82.20
2023-03-19T06:46:49.977Z,80.99
2023-03-19T06:49:17.217Z,80.12
2023-03-19T06:51:44.398Z,78.29
2023-03-19T06:54:11.472Z,76.70
2023-03-19T06:56:38.561Z,78.13
2023-03-19T06:59:05.622Z,77.97
2023-03-19T07:01:32.792Z,79.37
2023-03-19T07:03:59.905Z,77.91
2023-03-19T07:06:26.970Z,77.03
2023-03-19T07:08:54.017Z,75.78
2023-03-19T07:11:21.133Z,73.61
2023-03-19T07:13:50.354Z,73.80
2023-03-19T07:16:17.431Z,76.61
2023-03-19T07:18:44.496Z,78.12
2023-03-19T07:21:11.536Z,79.45
2023-03-19T07:23:38.587Z,76.54
2023-03-19T07:26:05.792Z,74.21
2023-03-19T07:28:32.916Z,74.05
2023-03-19T07:31:00.142Z,73.71
2023-03-19T07:33:27.225Z,74.68
2023-03-19T07:35:54.400Z,78.86
2023-03-19T07:38:22.626Z,78.09
2023-03-19T07:41:01.480Z,76.13
2023-03-19T07:43:30.854Z,75.55
2023-03-19T07:45:58.772Z,76.79
2023-03-19T07:48:26.070Z,76.21
2023-03-19T07:50:54.235Z,76.19
2023-03-19T07:53:21.456Z,77.79
2023-03-19T07:55:49.036Z,79.03
2023-03-19T07:58:16.979Z,84.29
2023-03-19T08:00:45.040Z,84.16
2023-03-19T08:03:12.418Z,85.69
2023-03-19T08:05:39.800Z,85.87
2023-03-19T08:08:07.206Z,87.56
2023-03-19T08:10:36.491Z,86.32
2023-03-19T08:13:05.298Z,86.78
2023-03-19T08:15:32.911Z,86.15
2023-03-19T08:18:04.858Z,85.07
2023-03-19T08:20:32.883Z,81.82
2023-03-19T08:23:00.277Z,79.12
2023-03-19T08:25:32.323Z,78.80
2023-03-19T08:28:01.206Z,78.37
2023-03-19T08:30:28.933Z,78.66
2023-03-19T08:32:56.143Z,76.51
2023-03-19T08:35:23.929Z,76.37
2023-03-19T08:37:51.002Z,75.55
2023-03-19T08:40:18.120Z,76.71
2023-03-19T08:42:45.572Z,75.96
2023-03-19T08:45:15.653Z,76.21
2023-03-19T08:47:43.994Z,75.17
2023-03-19T08:50:11.985Z,75.30
2023-03-19T08:52:39.273Z,75.85
2023-03-19T08:55:08.390Z,74.22
2023-03-19T08:57:36.390Z,76.33
2023-03-19T09:00:06.580Z,76.66
2023-03-19T09:02:33.829Z,76.76
2023-03-19T09:05:00.954Z,76.81
2023-03-19T09:07:28.040Z,76.60
2023-03-19T09:09:55.470Z,76.93
2023-03-19T09:12:22.613Z,75.89
2023-03-19T09:14:49.755Z,78.01
2023-03-19T09:17:19.297Z,78.19
2023-03-19T09:19:46.380Z,79.88
2023-03-19T09:22:15.523Z,78.00
2023-03-19T09:24:42.865Z,80.58
2023-03-19T09:27:09.930Z,81.74
2023-03-19T09:29:37.031Z,80.87
2023-03-19T09:32:04.347Z,80.29
2023-03-19T09:34:31.571Z,82.88
2023-03-19T09:36:58.681Z,83.13
2023-03-19T09:39:26.929Z,83.80
2023-03-19T09:42:37.909Z,83.40
2023-03-19T09:45:12.347Z,84.40
2023-03-19T09:47:43.357Z,84.54
2023-03-19T09:50:26.127Z,83.53
2023-03-19T09:53:19.151Z,82.60
2023-03-19T09:55:52.492Z,84.09
2023-03-19T09:58:30.709Z,82.47
2023-03-19T10:01:00.953Z,83.02
2023-03-19T10:03:27.814Z,85.47
2023-03-19T10:06:09.483Z,87.45
2023-03-19T10:09:33.526Z,86.50
2023-03-19T10:12:48.425Z,84.43
2023-03-19T10:15:32.577Z,84.05
2023-03-19T10:18:24.372Z,83.07
2023-03-19T10:21:35.302Z,84.25
2023-03-19T10:24:27.821Z,82.82
2023-03-19T10:27:10.808Z,84.23
2023-03-19T10:29:39.006Z,84.50
2023-03-19T10:32:41.282Z,83.20
2023-03-19T10:35:27.673Z,84.73
2023-03-19T10:37:55.713Z,82.99
2023-03-19T10:40:51.456Z,80.72
2023-03-19T10:43:25.489Z,78.75
2023-03-19T10:45:54.082Z,77.48
2023-03-19T10:48:28.333Z,76.06
2023-03-19T10:51:05.543Z,76.20
2023-03-19T10:53:38.831Z,77.19
2023-03-19T10:56:23.187Z,77.13
2023-03-19T10:59:30.220Z,76.22
2023-03-19T11:02:27.861Z,76.48
2023-03-19T11:05:14.729Z,73.77
2023-03-19T11:07:41.899Z,71.99
2023-03-19T11:10:18.763Z,72.20
2023-03-19T11:13:15.625Z,70.28
2023-03-19T11:15:42.778Z,72.08
2023-03-19T11:18:36.829Z,71.89
2023-03-19T11:21:23.485Z,75.09
2023-03-19T11:24:03.342Z,72.91
2023-03-19T11:26:31.280Z,72.09
2023-03-19T11:29:05.172Z,70.70
2023-03-19T11:31:54.364Z,72.68
2023-03-19T11:34:58.974Z,74.53
2023-03-19T11:38:01.043Z,72.22
2023-03-19T11:41:09.064Z,72.94
2023-03-19T11:44:19.121Z,71.35
2023-03-19T11:47:38.939Z,72.55
2023-03-19T11:50:22.146Z,72.77
2023-03-19T11:53:05.175Z,71.67
2023-03-19T11:55:43.552Z,70.18
2023-03-19T11:59:09.690Z,67.80
2023-03-19T12:02:35.210Z,69.18
2023-03-19T12:05:51.514Z,69.09
2023-03-19T12:08:45.788Z,68.95
2023-03-19T12:11:28.181Z,68.32
2023-03-19T12:14:30.135Z,67.67
2023-03-19T12:17:48.771Z,66.38
2023-03-19T12:21:03.479Z,68.24
2023-03-19T12:24:23.115Z,67.05
2023-03-19T12:27:10.318Z,67.88
2023-03-19T12:29:52.258Z,68.27
2023-03-19T12:32:38.310Z,66.26
2023-03-19T12:35:26.413Z,65.23
2023-03-19T12:38:06.017Z,64.54
2023-03-19T12:40:43.607Z,64.12
2023-03-19T12:43:55.267Z,65.36
2023-03-19T12:46:33.196Z,68.15
2023-03-19T12:49:37.441Z,65.39
2023-03-19T12:52:39.568Z,62.88
2023-03-19T12:55:36.336Z,62.95
2023-03-19T12:58:59.925Z,63.34
2023-03-19T13:01:38.925Z,66.01
2023-03-19T13:04:33.222Z,64.40
2023-03-19T13:07:59.962Z,65.36
2023-03-19T13:10:31.385Z,66.34
2023-03-19T13:13:01.275Z,63.30
2023-03-19T13:15:47.786Z,59.64
2023-03-19T13:18:23.840Z,62.43
2023-03-19T13:21:21.565Z,60.26
2023-03-19T13:24:02.278Z,62.14
2023-03-19T13:26:29.821Z,60.29
2023-03-19T13:29:13.798Z,60.59
2023-03-19T13:31:41.679Z,60.71
2023-03-19T13:34:28.667Z,59.11
2023-03-19T13:37:10.582Z,58.45
2023-03-19T13:39:37.992Z,58.74
2023-03-19T13:42:42.487Z,59.93
2023-03-19T13:45:38.358Z,59.70
2023-03-19T13:48:28.567Z,57.95
2023-03-19T13:51:29.656Z,58.09
2023-03-19T13:54:13.574Z,56.63
2023-03-19T13:57:01.016Z,56.38
2023-03-19T13:59:43.879Z,57.58
2023-03-19T14:02:24.060Z,57.93
2023-03-19T14:05:04.033Z,58.74
2023-03-19T14:07:41.773Z,57.45
2023-03-19T14:10:57.212Z,56.56
2023-03-19T14:13:38.208Z,56.38
2023-03-19T14:16:26.178Z,56.68
2023-03-19T14:19:00.756Z,55.73
2023-03-19T14:22:02.675Z,57.23
2023-03-19T14:24:55.855Z,60.11
2023-03-19T14:27:32.869Z,59.83
2023-03-19T14:30:11.101Z,62.74
2023-03-19T14:32:42.160Z,59.06
2023-03-19T14:35:20.510Z,58.53
2023-03-19T14:37:52.426Z,60.79
2023-03-19T14:40:50.546Z,59.95
2023-03-19T14:44:22.798Z,57.95
2023-03-19T14:47:22.636Z,57.15
2023-03-19T14:50:57.198Z,55.94
2023-03-19T14:53:58.632Z,55.78
2023-03-19T14:56:36.089Z,57.17
2023-03-19T14:59:06.004Z,56.85
2023-03-19T15:01:41.097Z,55.46
2023-03-19T15:04:15.813Z,58.56
2023-03-19T15:06:58.242Z,58.99
2023-03-19T15:09:33.527Z,60.02
2023-03-19T15:12:46.021Z,57.27
2023-03-19T15:15:50.219Z,57.21
2023-03-19T15:18:20.599Z,58.43
2023-03-19T15:20:55.496Z,58.91
2023-03-19T15:23:29.386Z,60.65
2023-03-19T15:26:03.901Z,60.71
2023-03-19T15:28:54.175Z,58.94
2023-03-19T15:31:37.521Z,58.17
2023-03-19T15:34:31.221Z,60.00
2023-03-19T15:37:15.488Z,60.08
2023-03-19T15:39:54.349Z,60.75
2023-03-19T15:42:26.193Z,63.47
2023-03-19T15:45:12.173Z,64.22
2023-03-19T15:48:08.406Z,64.89
2023-03-19T15:50:42.179Z,64.45
2023-03-19T15:53:24.415Z,62.50
2023-03-19T15:55:55.670Z,62.21
2023-03-19T15:58:32.465Z,64.72
2023-03-19T16:01:01.145Z,64.19
2023-03-19T16:03:50.996Z,63.80
2023-03-19T16:06:29.346Z,63.84
2023-03-19T16:09:32.802Z,66.45
2023-03-19T16:12:01.235Z,65.34
2023-03-19T16:14:39.680Z,64.48
2023-03-19T16:17:17.191Z,65.12
2023-03-19T16:19:50.361Z,67.69
2023-03-19T16:22:23.722Z,66.49
2023-03-19T16:24:53.815Z,64.72
2023-03-19T16:27:34.500Z,65.65
2023-03-19T16:30:02.446Z,65.64
2023-03-19T16:32:32.414Z,65.54
2023-03-19T16:35:20.544Z,65.44
2023-03-19T16:37:55.007Z,64.33
2023-03-19T16:40:21.851Z,66.05
2023-03-19T16:42:56.180Z,66.33
2023-03-19T16:45:31.060Z,66.97
2023-03-19T16:48:05.219Z,69.70
2023-03-19T16:50:43.107Z,69.23
2023-03-19T16:53:24.284Z,68.02
2023-03-19T16:55:54.334Z,68.51
2023-03-19T16:58:36.427Z,69.35
2023-03-19T17:01:22.234Z,70.17
2023-03-19T17:03:50.317Z,71.03
2023-03-19T17:06:19.135Z,72.30
2023-03-19T17:08:46.248Z,71.70
2023-03-19T17:11:31.097Z,71.72
2023-03-19T17:14:00.181Z,72.06
2023-03-19T17:16:28.369Z,72.21
2023-03-19T17:18:56.491Z,72.52
2023-03-19T17:21:33.226Z,73.09
2023-03-19T17:24:30.169Z,72.44
2023-03-19T17:27:01.705Z,73.69
2023-03-19T17:29:30.439Z,74.23
2023-03-19T17:32:01.815Z,74.30
2023-03-19T17:34:32.002Z,73.44
2023-03-19T17:37:04.581Z,74.10
2023-03-19T17:39:32.737Z,74.95
2023-03-19T17:41:59.986Z,74.85
2023-03-19T17:44:27.892Z,75.12
2023-03-19T17:46:55.794Z,76.30
2023-03-19T17:49:33.779Z,75.80
2023-03-19T17:52:01.452Z,76.22
2023-03-19T17:54:28.837Z,76.59
2023-03-19T17:56:56.129Z,75.66
2023-03-19T17:59:23.799Z,75.32
2023-03-19T18:01:52.000Z,76.27
2023-03-19T18:04:22.389Z,75.47
2023-03-19T18:06:55.914Z,76.30
2023-03-19T18:09:28.469Z,75.38
2023-03-19T18:11:55.977Z,74.93
2023-03-19T18:14:23.008Z,77.31
2023-03-19T18:16:50.605Z,76.88
2023-03-19T18:19:37.709Z,76.88
2023-03-19T18:22:17.734Z,78.95
2023-03-19T18:24:46.059Z,78.48
2023-03-19T18:27:13.479Z,77.71
2023-03-19T18:29:40.779Z,76.03
2023-03-19T18:32:17.644Z,76.64
2023-03-19T18:34:44.860Z,76.81
2023-03-19T18:37:18.240Z,75.74
2023-03-19T18:39:45.539Z,75.36
2023-03-19T18:42:14.187Z,74.74
2023-03-19T18:44:41.349Z,74.11
2023-03-19T18:47:15.781Z,74.27
2023-03-19T18:49:43.627Z,75.37
2023-03-19T18:52:17.852Z,74.84
2023-03-19T18:54:46.586Z,74.64
2023-03-19T18:57:15.643Z,75.08
2023-03-19T18:59:43.078Z,75.69
2023-03-19T19:02:35.012Z,74.94
2023-03-19T19:05:02.543Z,74.34
2023-03-19T19:07:29.724Z,73.21
2023-03-19T19:09:56.868Z,73.17
2023-03-19T19:12:25.986Z,73.39
2023-03-19T19:14:53.105Z,74.69
2023-03-19T19:17:24.472Z,74.44
2023-03-19T19:19:51.562Z,73.67
2023-03-19T19:22:19.885Z,73.28
2023-03-19T19:24:47.656Z,74.94
2023-03-19T19:27:23.662Z,73.59
2023-03-19T19:29:51.271Z,75.60
2023-03-19T19:32:29.356Z,76.12
2023-03-19T19:34:57.038Z,78.22
2023-03-19T19:37:24.317Z,78.61
2023-03-19T19:39:51.864Z,77.65
2023-03-19T19:42:22.587Z,77.98
2023-03-19T19:45:03.233Z,77.75
2023-03-19T19:47:30.435Z,78.38
2023-03-19T19:49:57.985Z,78.50
2023-03-19T19:52:25.078Z,77.75
2023-03-19T19:54:52.141Z,76.72
2023-03-19T19:57:26.419Z,75.14
2023-03-19T19:59:55.535Z,75.00
2023-03-19T20:02:29.105Z,74.48
2023-03-19T20:04:57.987Z,74.75
2023-03-19T20:07:25.122Z,74.14
2023-03-19T20:09:52.254Z,73.05
2023-03-19T20:12:30.854Z,72.66
2023-03-19T20:15:00.543Z,73.86
2023-03-19T20:17:27.930Z,72.14
2023-03-19T20:19:55.211Z,73.44
2023-03-19T20:22:22.324Z,73.68
2023-03-19T20:24:51.382Z,72.31
2023-03-19T20:27:28.662Z,71.35
2023-03-19T20:29:56.082Z,71.04
2023-03-19T20:32:34.280Z,70.74
2023-03-19T20:35:01.508Z,69.67
2023-03-19T20:37:29.423Z,69.59
2023-03-19T20:39:56.738Z,68.45
2023-03-19T20:42:24.641Z,68.43
2023-03-19T20:44:58.430Z,69.07
2023-03-19T20:47:25.925Z,68.49
2023-03-19T20:49:53.366Z,68.98
2023-03-19T20:52:21.319Z,68.51
2023-03-19T20:54:49.334Z,68.00
2023-03-19T20:57:29.142Z,67.46
2023-03-19T20:59:57.193Z,66.79
2023-03-19T21:02:26.218Z,67.48
2023-03-19T21:04:53.358Z,67.37
2023-03-19T21:07:34.459Z,66.78
2023-03-19T21:10:15.664Z,67.35
2023-03-19T21:12:42.742Z,66.83
2023-03-19T21:15:16.661Z,66.12
2023-03-19T21:17:44.295Z,66.49
2023-03-19T21:20:30.435Z,66.61
2023-03-19T21:23:17.458Z,66.78
2023-03-19T21:25:46.186Z,66.34
2023-03-19T21:28:34.118Z,65.66
2023-03-19T21:31:02.157Z,66.17
2023-03-19T21:33:33.142Z,66.50
2023-03-19T21:36:05.700Z,66.78
2023-03-19T21:38:33.018Z,66.54
2023-03-19T21:41:05.219Z,66.27
2023-03-19T21:43:43.781Z,67.04
2023-03-19T21:46:24.497Z,66.85
2023-03-19T21:48:54.471Z,67.10
2023-03-19T21:51:22.509Z,66.27
2023-03-19T21:53:49.731Z,66.33
2023-03-19T21:56:33.314Z,66.35
2023-03-19T21:59:04.116Z,66.19
2023-03-19T22:01:31.244Z,66.11
2023-03-19T22:03:58.550Z,66.29
2023-03-19T22:06:26.052Z,66.64
2023-03-19T22:08:54.057Z,67.15
2023-03-19T22:11:32.496Z,67.76
2023-03-19T22:14:17.783Z,67.83
2023-03-19T22:16:47.467Z,67.37
2023-03-19T22:19:17.770Z,67.85
2023-03-19T22:21:46.258Z,68.93
2023-03-19T22:24:13.500Z,69.37
2023-03-19T22:26:46.751Z,69.50
2023-03-19T22:29:23.487Z,69.45
2023-03-19T22:31:53.069Z,68.22
2023-03-19T22:34:25.511Z,67.88
2023-03-19T22:36:52.650Z,68.33
2023-03-19T22:39:19.914Z,67.79
2023-03-19T22:41:48.786Z,68.85
2023-03-19T22:44:31.233Z,68.75
2023-03-19T22:47:01.652Z,69.30
2023-03-19T22:49:32.381Z,70.27
2023-03-19T22:51:59.780Z,71.22
2023-03-19T22:54:26.825Z,72.80
2023-03-19T22:56:53.944Z,73.14
2023-03-19T22:59:21.512Z,72.58
2023-03-19T23:01:49.144Z,72.05
2023-03-19T23:04:25.100Z,70.54
2023-03-19T23:06:55.443Z,71.32
2023-03-19T23:09:35.841Z,71.14
2023-03-19T23:12:03.991Z,71.86
2023-03-19T23:14:33.561Z,73.12
2023-03-19T23:17:10.203Z,71.48
2023-03-19T23:19:38.360Z,71.53
2023-03-19T23:22:11.376Z,72.32
2023-03-19T23:24:38.666Z,73.58
2023-03-19T23:27:05.864Z,72.72
2023-03-19T23:29:40.937Z,74.84
2023-03-19T23:32:11.482Z,73.15
2023-03-19T23:34:54.028Z,72.03
2023-03-19T23:37:24.254Z,72.78
2023-03-19T23:39:51.787Z,74.14
2023-03-19T23:42:28.756Z,73.69
2023-03-19T23:45:01.919Z,72.16
2023-03-19T23:47:30.686Z,71.94
2023-03-19T23:49:58.059Z,72.58
2023-03-19T23:52:25.346Z,72.61
2023-03-19T23:54:52.509Z,71.54
2023-03-19T23:57:26.349Z,71.94
2023-03-19T23:59:54.141Z,71.52
